, TX

(GMT )
Ingleside

Weather History for KTFP - February, 2014

Change the Weather History Date:

Tuesday, February 11, 2014

  Actual Average Record
Temperature  
Mean Temperature 42 °F -  
Max Temperature 45 °F - - ()
Min Temperature 38 °F - - ()
Degree Days  
Heating Degree Days 24    
Moisture  
Dew Point 40 °F    
Average Humidity 95    
Maximum Humidity 98    
Minimum Humidity 88    
Precipitation  
Precipitation 0.00 in - - ()
Sea Level Pressure  
Sea Level Pressure 30.14 in    
Wind  
Wind Speed 16 mph (North)    
Max Wind Speed 20 mph    
Max Gust Speed 28 mph    
Visibility 7 miles    
Events Rain    
Averages and records for this station are not official NWS values.
T = Trace of Precipitation, MM = Missing Value Source: NWS Daily Summary

Daily Weather History Graph

Daily Weather History Graph

Search for Another Location

Airport or City:

Trip Planner

Search our weather history database for the weather conditions in past years. The results will help you decide how hot, cold, wet, or windy it might be!

Date:

Astronomy

Feb. 11, 2014 Rise Set
Actual Time 7:09 AM CST 6:17 PM CST
Civil Twilight 6:45 AM CST 6:41 PM CST
Nautical Twilight 6:17 AM CST 7:08 PM CST
Astronomical Twilight 5:50 AM CST 7:36 PM CST
Moon 3:44 PM CST (2/11) 4:40 AM CST (2/11)
Length of Visible Light 11h 55m
Length of Day
11h 07m
Waxing Gibbous, 91% of the Moon is Illuminated
Feb 11
Waxing Gibbous
Feb 14
Full
Feb 22
Last Quarter
Mar 1
New
Mar 8
First Quarter

Hourly Weather History & Observations

Time (CST) Temp. Windchill Dew Point Humidity Pressure Visibility Wind Dir Wind Speed Gust Speed Precip Events Conditions
12:15 AM 45.1 °F 37.3 °F 43.7 °F 95% 30.08 in 10.0 mi NNE 19.6 mph 27.6 mph N/A   Overcast
12:35 AM 45.0 °F 37.1 °F 43.3 °F 94% 30.08 in 10.0 mi NNE 19.6 mph 24.2 mph N/A   Overcast
12:55 AM 45.0 °F 37.6 °F 43.0 °F 93% 30.07 in 10.0 mi NNE 17.3 mph 23.0 mph N/A   Overcast
1:15 AM 44.8 °F 37.1 °F 42.8 °F 93% 30.08 in 10.0 mi NNE 18.4 mph 24.2 mph N/A   Overcast
1:35 AM 44.8 °F 38.3 °F 42.8 °F 93% 30.08 in 10.0 mi NNE 13.8 mph - N/A   Overcast
1:55 AM 44.6 °F 36.9 °F 42.8 °F 93% 30.07 in 10.0 mi NNE 18.4 mph 23.0 mph N/A   Overcast
2:15 AM 44.2 °F 37.0 °F 42.8 °F 95% 30.07 in 5.0 mi NNE 16.1 mph 20.7 mph N/A   Overcast
2:35 AM 43.9 °F 35.9 °F 43.0 °F 97% 30.07 in 5.0 mi NNE 18.4 mph 24.2 mph N/A   Overcast
2:55 AM 43.7 °F 36.0 °F 42.8 °F 97% 30.07 in 7.0 mi NNE 17.3 mph 21.9 mph N/A   Overcast
3:15 AM 43.3 °F 35.2 °F 42.8 °F 98% 30.08 in 7.0 mi NNE 18.4 mph 23.0 mph N/A   Overcast
3:35 AM 43.3 °F 35.5 °F 42.4 °F 97% 30.08 in 10.0 mi NNE 17.3 mph - N/A   Overcast
3:55 AM 43.0 °F 35.1 °F 42.1 °F 97% 30.07 in 7.0 mi NNE 17.3 mph 23.0 mph N/A   Overcast
4:15 AM 42.6 °F 34.6 °F 41.7 °F 97% 30.08 in 4.0 mi NNE 17.3 mph 21.9 mph N/A   Overcast
4:35 AM 42.4 °F 35.0 °F 41.7 °F 97% 30.08 in 5.0 mi NNE 15.0 mph 23.0 mph N/A   Overcast
4:55 AM 42.3 °F 33.8 °F 41.5 °F 97% 30.08 in 7.0 mi NE 18.4 mph 25.3 mph N/A   Overcast
5:15 AM 42.1 °F 34.2 °F 41.4 °F 97% 30.08 in 5.0 mi NNE 16.1 mph 24.2 mph N/A   Overcast
5:35 AM 42.1 °F 33.3 °F 41.4 °F 97% 30.08 in 5.0 mi NNE 19.6 mph 24.2 mph N/A   Overcast
5:55 AM 42.1 °F 34.5 °F 41.4 °F 97% 30.09 in 5.0 mi NNE 15.0 mph 21.9 mph N/A   Overcast
6:15 AM 42.3 °F 35.5 °F 41.5 °F 97% 30.10 in 5.0 mi NNE 12.7 mph 18.4 mph N/A   Overcast
6:35 AM 42.1 °F 34.5 °F 41.2 °F 97% 30.11 in 10.0 mi NE 15.0 mph 20.7 mph N/A   Overcast
6:55 AM 42.1 °F - 41.2 °F 97% 30.12 in 10.0 mi North - - N/A   Overcast
7:15 AM 42.1 °F 34.2 °F 41.0 °F 96% 30.13 in 10.0 mi NNE 16.1 mph - N/A   Overcast
7:35 AM 41.9 °F 35.4 °F 40.8 °F 96% 30.15 in 5.0 mi NNE 11.5 mph - N/A   Overcast
7:55 AM 41.9 °F 34.3 °F 41.0 °F 97% 30.14 in 2.0 mi North 15.0 mph - N/A   Overcast
8:15 AM 41.9 °F 34.0 °F 41.0 °F 97% 30.15 in 2.5 mi NNE 16.1 mph 20.7 mph N/A   Overcast
8:35 AM 41.7 °F 34.8 °F 41.0 °F 97% 30.16 in 5.0 mi North 12.7 mph 21.9 mph N/A   Overcast
8:55 AM 41.9 °F 34.6 °F 41.0 °F 97% 30.17 in 4.0 mi North 13.8 mph - N/A   Overcast
9:15 AM 41.9 °F 34.6 °F 41.0 °F 97% 30.18 in 5.0 mi North 13.8 mph 18.4 mph N/A   Overcast
9:35 AM 41.4 °F 34.0 °F 40.6 °F 97% 30.18 in 2.5 mi North 13.8 mph - N/A   Overcast
9:55 AM 41.4 °F 33.6 °F 40.6 °F 97% 30.19 in 5.0 mi NNE 15.0 mph - N/A   Light Drizzle
10:15 AM 41.4 °F 34.7 °F 40.3 °F 96% 30.19 in 5.0 mi North 11.5 mph - N/A   Overcast
10:35 AM 41.4 °F 34.0 °F 40.3 °F 96% 30.19 in 5.0 mi North 13.8 mph - N/A   Overcast
10:55 AM 41.0 °F 32.8 °F 40.1 °F 97% 30.19 in 5.0 mi North 16.1 mph - N/A   Overcast
11:15 AM 41.0 °F 33.9 °F 39.9 °F 96% 30.18 in 7.0 mi North 12.7 mph - N/A   Overcast
11:35 AM 41.4 °F 34.0 °F 39.7 °F 94% 30.19 in 10.0 mi North 13.8 mph - N/A   Overcast
11:55 AM 41.4 °F 34.7 °F 39.4 °F 93% 30.20 in 10.0 mi North 11.5 mph - N/A   Overcast
12:15 PM 41.5 °F 34.6 °F 39.4 °F 92% 30.18 in 10.0 mi North 12.7 mph - N/A   Overcast
12:35 PM 41.5 °F 34.6 °F 39.6 °F 93% 30.18 in 5.0 mi NNW 12.7 mph - N/A   Overcast
12:55 PM 41.2 °F 33.7 °F 39.9 °F 95% 30.18 in 2.5 mi NNW 13.8 mph - N/A   Overcast
1:15 PM 40.8 °F 32.6 °F 39.7 °F 96% 30.16 in 1.2 mi NNW 16.1 mph - N/A   Overcast
1:35 PM 40.3 °F 32.2 °F 39.4 °F 97% 30.16 in 1.5 mi NNW 15.0 mph - N/A   Overcast
1:55 PM 40.3 °F 31.9 °F 39.6 °F 97% 30.15 in 2.0 mi NNW 16.1 mph 20.7 mph N/A   Overcast
2:15 PM 40.3 °F 31.3 °F 39.6 °F 97% 30.15 in 5.0 mi North 18.4 mph - N/A   Overcast
2:35 PM 40.3 °F 32.6 °F 39.4 °F 97% 30.15 in 3.0 mi North 13.8 mph - N/A   Overcast
2:55 PM 40.5 °F 32.8 °F 39.6 °F 97% 30.14 in 4.0 mi North 13.8 mph 21.9 mph N/A   Overcast
3:15 PM 40.3 °F 31.3 °F 39.4 °F 97% 30.14 in 1.8 mi NNW 18.4 mph - N/A Rain Light Rain
3:35 PM 40.1 °F 32.4 °F 39.2 °F 97% 30.14 in 2.5 mi NNW 13.8 mph - N/A   Overcast
3:55 PM 40.1 °F 32.0 °F 39.2 °F 97% 30.12 in 10.0 mi North 15.0 mph - N/A   Light Drizzle
4:15 PM 40.3 °F 33.0 °F 39.2 °F 96% 30.14 in 10.0 mi NNW 12.7 mph - N/A   Overcast
4:35 PM 40.1 °F 33.2 °F 39.2 °F 97% 30.14 in 7.0 mi North 11.5 mph - N/A   Overcast
4:55 PM 40.3 °F 33.4 °F 39.2 °F 96% 30.14 in 10.0 mi North 11.5 mph - N/A   Overcast
5:15 PM 40.3 °F 33.0 °F 39.0 °F 95% 30.13 in 10.0 mi North 12.7 mph - N/A   Overcast
5:35 PM 40.3 °F 33.0 °F 38.7 °F 94% 30.14 in 10.0 mi North 12.7 mph 19.6 mph N/A   Overcast
5:55 PM 39.9 °F 31.8 °F 38.3 °F 94% 30.15 in 10.0 mi North 15.0 mph - N/A   Overcast
6:15 PM 39.7 °F 31.2 °F 37.9 °F 93% 30.15 in 10.0 mi North 16.1 mph - N/A   Overcast
6:35 PM 39.6 °F 31.3 °F 37.6 °F 93% 30.16 in 10.0 mi North 15.0 mph 24.2 mph N/A   Overcast
6:55 PM 39.4 °F 31.1 °F 37.6 °F 93% 30.16 in 10.0 mi North 15.0 mph - N/A   Overcast
7:15 PM 39.2 °F 31.6 °F 37.4 °F 93% 30.18 in 7.0 mi North 12.7 mph 18.4 mph N/A   Overcast
7:35 PM 39.2 °F 29.8 °F 37.4 °F 93% 30.18 in 7.0 mi NNW 18.4 mph - N/A   Overcast
7:55 PM 38.7 °F 29.8 °F 37.2 °F 95% 30.19 in 7.0 mi North 16.1 mph - N/A   Overcast
8:15 PM 38.5 °F 28.9 °F 36.7 °F 93% 30.20 in 10.0 mi North 18.4 mph 21.9 mph N/A   Overcast
8:35 PM 38.5 °F 28.9 °F 36.3 °F 92% 30.21 in 10.0 mi North 18.4 mph 21.9 mph N/A   Overcast
8:55 PM 38.3 °F 29.0 °F 36.0 °F 91% 30.21 in 10.0 mi North 17.3 mph - N/A   Overcast
9:15 PM 38.3 °F 28.4 °F 35.8 °F 91% 30.22 in 10.0 mi North 19.6 mph - N/A   Overcast
9:35 PM 38.3 °F 29.7 °F 35.6 °F 90% 30.21 in 10.0 mi North 15.0 mph 19.6 mph N/A   Overcast
9:55 PM 38.3 °F 30.1 °F 35.6 °F 90% 30.21 in 10.0 mi North 13.8 mph 17.3 mph N/A   Overcast
10:15 PM 38.3 °F 29.3 °F 35.6 °F 90% 30.20 in 10.0 mi North 16.1 mph 20.7 mph N/A   Overcast
10:35 PM 38.3 °F 29.7 °F 35.4 °F 89% 30.19 in 10.0 mi North 15.0 mph 19.6 mph N/A   Overcast
10:55 PM 38.3 °F 29.3 °F 35.1 °F 88% 30.19 in 10.0 mi North 16.1 mph 19.6 mph N/A   Overcast
11:15 PM 38.3 °F 29.3 °F 35.2 °F 89% 30.20 in 10.0 mi North 16.1 mph 19.6 mph N/A   Overcast
11:35 PM 38.3 °F 30.9 °F 35.1 °F 88% 30.19 in 10.0 mi North 11.5 mph - N/A   Overcast
11:55 PM 38.1 °F 29.8 °F 35.4 °F 90% 30.18 in 10.0 mi North 13.8 mph 17.3 mph N/A   Overcast